sensor_id;sensor_type;location;lat;lon;timestamp;P1;durP1;ratioP1;P2;durP2;ratioP2
24813;SDS011;12904;50.088;11.414;2023-08-07T00:02:10;2.40;;;0.73;;
24813;SDS011;12904;50.088;11.414;2023-08-07T00:04:35;0.93;;;0.20;;
24813;SDS011;12904;50.088;11.414;2023-08-07T00:07:01;0.20;;;0.20;;
24813;SDS011;12904;50.088;11.414;2023-08-07T00:09:27;0.30;;;0.30;;
24813;SDS011;12904;50.088;11.414;2023-08-07T00:11:52;1.50;;;0.28;;
24813;SDS011;12904;50.088;11.414;2023-08-07T00:14:18;0.52;;;0.22;;
24813;SDS011;12904;50.088;11.414;2023-08-07T00:16:44;0.20;;;0.20;;
24813;SDS011;12904;50.088;11.414;2023-08-07T00:19:10;0.80;;;0.20;;
24813;SDS011;12904;50.088;11.414;2023-08-07T00:21:36;0.30;;;0.30;;
24813;SDS011;12904;50.088;11.414;2023-08-07T00:24:03;0.73;;;0.20;;
24813;SDS011;12904;50.088;11.414;2023-08-07T00:26:28;1.08;;;0.30;;
24813;SDS011;12904;50.088;11.414;2023-08-07T00:28:55;0.20;;;0.20;;
24813;SDS011;12904;50.088;11.414;2023-08-07T00:31:21;0.88;;;0.20;;
24813;SDS011;12904;50.088;11.414;2023-08-07T00:33:46;0.47;;;0.22;;
24813;SDS011;12904;50.088;11.414;2023-08-07T00:36:16;4.03;;;0.35;;
24813;SDS011;12904;50.088;11.414;2023-08-07T00:38:42;0.98;;;0.20;;
24813;SDS011;12904;50.088;11.414;2023-08-07T00:41:07;0.43;;;0.22;;
24813;SDS011;12904;50.088;11.414;2023-08-07T00:43:34;0.40;;;0.30;;
24813;SDS011;12904;50.088;11.414;2023-08-07T00:46:00;1.27;;;0.20;;
24813;SDS011;12904;50.088;11.414;2023-08-07T00:48:27;0.43;;;0.25;;
24813;SDS011;12904;50.088;11.414;2023-08-07T00:50:54;1.63;;;0.30;;
24813;SDS011;12904;50.088;11.414;2023-08-07T00:53:20;3.03;;;0.20;;
24813;SDS011;12904;50.088;11.414;2023-08-07T00:55:47;3.55;;;0.30;;
24813;SDS011;12904;50.088;11.414;2023-08-07T00:58:13;1.27;;;0.30;;
24813;SDS011;12904;50.088;11.414;2023-08-07T01:00:39;0.20;;;0.20;;
24813;SDS011;12904;50.088;11.414;2023-08-07T01:03:06;2.03;;;0.30;;
24813;SDS011;12904;50.088;11.414;2023-08-07T01:05:32;1.73;;;0.30;;
24813;SDS011;12904;50.088;11.414;2023-08-07T01:07:59;0.95;;;0.30;;
24813;SDS011;12904;50.088;11.414;2023-08-07T01:10:47;0.98;;;0.20;;
24813;SDS011;12904;50.088;11.414;2023-08-07T01:13:40;0.30;;;0.28;;
24813;SDS011;12904;50.088;11.414;2023-08-07T01:16:17;1.35;;;0.30;;
24813;SDS011;12904;50.088;11.414;2023-08-07T01:18:46;1.13;;;0.40;;
24813;SDS011;12904;50.088;11.414;2023-08-07T01:21:20;1.05;;;0.30;;
24813;SDS011;12904;50.088;11.414;2023-08-07T01:23:47;0.57;;;0.35;;
24813;SDS011;12904;50.088;11.414;2023-08-07T01:26:13;1.23;;;0.30;;
24813;SDS011;12904;50.088;11.414;2023-08-07T01:28:42;1.85;;;0.40;;
24813;SDS011;12904;50.088;11.414;2023-08-07T01:31:15;0.50;;;0.30;;
24813;SDS011;12904;50.088;11.414;2023-08-07T01:34:01;1.63;;;0.40;;
24813;SDS011;12904;50.088;11.414;2023-08-07T01:36:29;1.13;;;0.30;;
24813;SDS011;12904;50.088;11.414;2023-08-07T01:38:57;5.80;;;0.30;;
24813;SDS011;12904;50.088;11.414;2023-08-07T01:41:24;2.33;;;0.30;;
24813;SDS011;12904;50.088;11.414;2023-08-07T01:43:50;4.03;;;0.30;;
24813;SDS011;12904;50.088;11.414;2023-08-07T01:46:17;0.38;;;0.15;;
24813;SDS011;12904;50.088;11.414;2023-08-07T01:48:43;1.10;;;0.40;;
24813;SDS011;12904;50.088;11.414;2023-08-07T01:51:08;0.20;;;0.20;;
24813;SDS011;12904;50.088;11.414;2023-08-07T01:53:34;0.20;;;0.20;;
24813;SDS011;12904;50.088;11.414;2023-08-07T01:56:00;1.23;;;0.20;;
24813;SDS011;12904;50.088;11.414;2023-08-07T01:58:25;2.30;;;0.40;;
24813;SDS011;12904;50.088;11.414;2023-08-07T02:00:51;3.25;;;0.35;;
24813;SDS011;12904;50.088;11.414;2023-08-07T02:03:17;0.30;;;0.30;;
24813;SDS011;12904;50.088;11.414;2023-08-07T02:05:46;0.75;;;0.30;;
24813;SDS011;12904;50.088;11.414;2023-08-07T02:08:12;0.45;;;0.40;;
24813;SDS011;12904;50.088;11.414;2023-08-07T02:10:39;4.68;;;0.47;;
24813;SDS011;12904;50.088;11.414;2023-08-07T02:13:05;0.40;;;0.40;;
24813;SDS011;12904;50.088;11.414;2023-08-07T02:15:30;0.80;;;0.40;;
24813;SDS011;12904;50.088;11.414;2023-08-07T02:17:56;1.42;;;0.40;;
24813;SDS011;12904;50.088;11.414;2023-08-07T02:20:21;5.45;;;0.50;;
24813;SDS011;12904;50.088;11.414;2023-08-07T02:22:47;1.42;;;0.60;;
24813;SDS011;12904;50.088;11.414;2023-08-07T02:25:13;3.65;;;0.80;;
24813;SDS011;12904;50.088;11.414;2023-08-07T02:27:38;1.70;;;0.88;;
24813;SDS011;12904;50.088;11.414;2023-08-07T02:30:04;3.05;;;0.80;;
24813;SDS011;12904;50.088;11.414;2023-08-07T02:32:31;1.38;;;0.75;;
24813;SDS011;12904;50.088;11.414;2023-08-07T02:34:57;2.35;;;0.80;;
24813;SDS011;12904;50.088;11.414;2023-08-07T02:37:22;2.35;;;0.65;;
24813;SDS011;12904;50.088;11.414;2023-08-07T02:39:48;3.13;;;0.77;;
24813;SDS011;12904;50.088;11.414;2023-08-07T02:42:14;1.35;;;0.70;;
24813;SDS011;12904;50.088;11.414;2023-08-07T02:44:39;1.38;;;0.70;;
24813;SDS011;12904;50.088;11.414;2023-08-07T02:47:05;1.85;;;0.70;;
24813;SDS011;12904;50.088;11.414;2023-08-07T02:49:31;11.00;;;0.80;;
24813;SDS011;12904;50.088;11.414;2023-08-07T02:51:57;1.23;;;0.60;;
24813;SDS011;12904;50.088;11.414;2023-08-07T02:54:22;0.82;;;0.68;;
24813;SDS011;12904;50.088;11.414;2023-08-07T02:56:48;2.47;;;0.60;;
24813;SDS011;12904;50.088;11.414;2023-08-07T02:59:14;1.17;;;0.50;;
24813;SDS011;12904;50.088;11.414;2023-08-07T03:01:40;1.10;;;0.57;;
24813;SDS011;12904;50.088;11.414;2023-08-07T03:04:07;1.35;;;0.50;;
24813;SDS011;12904;50.088;11.414;2023-08-07T03:06:32;0.65;;;0.50;;
24813;SDS011;12904;50.088;11.414;2023-08-07T03:08:58;0.50;;;0.40;;
24813;SDS011;12904;50.088;11.414;2023-08-07T03:11:24;0.40;;;0.40;;
24813;SDS011;12904;50.088;11.414;2023-08-07T03:13:49;0.32;;;0.30;;
24813;SDS011;12904;50.088;11.414;2023-08-07T03:16:15;1.35;;;0.60;;
24813;SDS011;12904;50.088;11.414;2023-08-07T03:18:41;1.45;;;0.43;;
24813;SDS011;12904;50.088;11.414;2023-08-07T03:21:06;0.60;;;0.60;;
24813;SDS011;12904;50.088;11.414;2023-08-07T03:23:32;3.03;;;0.60;;
24813;SDS011;12904;50.088;11.414;2023-08-07T03:26:01;0.70;;;0.60;;
24813;SDS011;12904;50.088;11.414;2023-08-07T03:28:32;1.88;;;0.60;;
24813;SDS011;12904;50.088;11.414;2023-08-07T03:30:58;2.47;;;0.80;;
24813;SDS011;12904;50.088;11.414;2023-08-07T03:33:23;0.60;;;0.60;;
24813;SDS011;12904;50.088;11.414;2023-08-07T03:35:49;0.60;;;0.60;;
24813;SDS011;12904;50.088;11.414;2023-08-07T03:38:15;2.13;;;0.75;;
24813;SDS011;12904;50.088;11.414;2023-08-07T03:40:40;0.82;;;0.70;;
24813;SDS011;12904;50.088;11.414;2023-08-07T03:43:06;1.88;;;0.85;;
24813;SDS011;12904;50.088;11.414;2023-08-07T03:45:31;4.97;;;1.70;;
24813;SDS011;12904;50.088;11.414;2023-08-07T03:47:57;0.70;;;0.70;;
24813;SDS011;12904;50.088;11.414;2023-08-07T03:50:22;2.90;;;0.80;;
24813;SDS011;12904;50.088;11.414;2023-08-07T03:52:48;6.93;;;1.00;;
24813;SDS011;12904;50.088;11.414;2023-08-07T03:55:14;1.20;;;0.90;;
24813;SDS011;12904;50.088;11.414;2023-08-07T03:57:39;11.13;;;0.90;;
24813;SDS011;12904;50.088;11.414;2023-08-07T04:00:05;1.05;;;0.82;;
24813;SDS011;12904;50.088;11.414;2023-08-07T04:02:32;0.82;;;0.80;;
24813;SDS011;12904;50.088;11.414;2023-08-07T04:04:57;1.00;;;0.90;;
24813;SDS011;12904;50.088;11.414;2023-08-07T04:07:23;0.95;;;0.70;;
24813;SDS011;12904;50.088;11.414;2023-08-07T04:09:49;0.60;;;0.60;;
24813;SDS011;12904;50.088;11.414;2023-08-07T04:12:14;1.45;;;0.75;;
24813;SDS011;12904;50.088;11.414;2023-08-07T04:14:40;3.53;;;0.90;;
24813;SDS011;12904;50.088;11.414;2023-08-07T04:17:05;2.30;;;0.80;;
24813;SDS011;12904;50.088;11.414;2023-08-07T04:19:31;3.28;;;0.70;;
24813;SDS011;12904;50.088;11.414;2023-08-07T04:21:57;0.82;;;0.73;;
24813;SDS011;12904;50.088;11.414;2023-08-07T04:24:23;7.07;;;0.77;;
24813;SDS011;12904;50.088;11.414;2023-08-07T04:26:48;4.50;;;0.75;;
24813;SDS011;12904;50.088;11.414;2023-08-07T04:29:15;0.85;;;0.60;;
24813;SDS011;12904;50.088;11.414;2023-08-07T04:31:41;1.77;;;0.80;;
24813;SDS011;12904;50.088;11.414;2023-08-07T04:34:06;0.60;;;0.60;;
24813;SDS011;12904;50.088;11.414;2023-08-07T04:36:32;2.20;;;0.80;;
24813;SDS011;12904;50.088;11.414;2023-08-07T04:38:58;2.08;;;0.70;;
24813;SDS011;12904;50.088;11.414;2023-08-07T04:41:24;3.83;;;0.70;;
24813;SDS011;12904;50.088;11.414;2023-08-07T04:43:49;0.65;;;0.65;;
24813;SDS011;12904;50.088;11.414;2023-08-07T04:46:15;0.60;;;0.60;;
24813;SDS011;12904;50.088;11.414;2023-08-07T04:48:40;1.27;;;0.60;;
24813;SDS011;12904;50.088;11.414;2023-08-07T04:51:06;2.90;;;0.50;;
24813;SDS011;12904;50.088;11.414;2023-08-07T04:53:32;1.30;;;0.55;;
24813;SDS011;12904;50.088;11.414;2023-08-07T04:56:01;2.90;;;0.73;;
24813;SDS011;12904;50.088;11.414;2023-08-07T04:58:27;0.68;;;0.60;;
24813;SDS011;12904;50.088;11.414;2023-08-07T05:00:56;1.70;;;0.80;;
24813;SDS011;12904;50.088;11.414;2023-08-07T05:03:22;1.90;;;0.70;;
24813;SDS011;12904;50.088;11.414;2023-08-07T05:05:48;1.63;;;0.70;;
24813;SDS011;12904;50.088;11.414;2023-08-07T05:08:14;0.50;;;0.50;;
24813;SDS011;12904;50.088;11.414;2023-08-07T05:10:39;0.50;;;0.50;;
24813;SDS011;12904;50.088;11.414;2023-08-07T05:13:05;1.17;;;0.50;;
24813;SDS011;12904;50.088;11.414;2023-08-07T05:15:30;2.50;;;0.52;;
24813;SDS011;12904;50.088;11.414;2023-08-07T05:17:56;2.60;;;0.65;;
24813;SDS011;12904;50.088;11.414;2023-08-07T05:20:22;1.05;;;0.65;;
24813;SDS011;12904;50.088;11.414;2023-08-07T05:22:48;0.60;;;0.50;;
24813;SDS011;12904;50.088;11.414;2023-08-07T05:25:14;4.90;;;0.70;;
24813;SDS011;12904;50.088;11.414;2023-08-07T05:27:41;2.55;;;0.50;;
24813;SDS011;12904;50.088;11.414;2023-08-07T05:30:07;1.45;;;1.05;;
24813;SDS011;12904;50.088;11.414;2023-08-07T05:32:33;2.00;;;0.50;;
24813;SDS011;12904;50.088;11.414;2023-08-07T05:35:03;1.48;;;0.60;;
24813;SDS011;12904;50.088;11.414;2023-08-07T05:37:29;0.63;;;0.45;;
24813;SDS011;12904;50.088;11.414;2023-08-07T05:39:56;10.02;;;0.60;;
24813;SDS011;12904;50.088;11.414;2023-08-07T05:42:22;3.20;;;0.50;;
24813;SDS011;12904;50.088;11.414;2023-08-07T05:44:48;0.40;;;0.40;;
24813;SDS011;12904;50.088;11.414;2023-08-07T05:47:14;0.43;;;0.35;;
24813;SDS011;12904;50.088;11.414;2023-08-07T05:49:39;0.85;;;0.40;;
24813;SDS011;12904;50.088;11.414;2023-08-07T05:52:05;0.30;;;0.20;;
24813;SDS011;12904;50.088;11.414;2023-08-07T05:54:31;0.65;;;0.35;;
24813;SDS011;12904;50.088;11.414;2023-08-07T05:56:57;0.93;;;0.40;;
24813;SDS011;12904;50.088;11.414;2023-08-07T05:59:22;0.40;;;0.35;;
24813;SDS011;12904;50.088;11.414;2023-08-07T06:01:48;4.78;;;0.95;;
24813;SDS011;12904;50.088;11.414;2023-08-07T06:04:13;0.50;;;0.50;;
24813;SDS011;12904;50.088;11.414;2023-08-07T06:06:39;3.10;;;0.40;;
24813;SDS011;12904;50.088;11.414;2023-08-07T06:09:08;0.68;;;0.40;;
24813;SDS011;12904;50.088;11.414;2023-08-07T06:11:34;0.20;;;0.20;;
24813;SDS011;12904;50.088;11.414;2023-08-07T06:13:59;0.45;;;0.45;;
24813;SDS011;12904;50.088;11.414;2023-08-07T06:16:25;0.35;;;0.30;;
24813;SDS011;12904;50.088;11.414;2023-08-07T06:18:52;1.10;;;0.38;;
24813;SDS011;12904;50.088;11.414;2023-08-07T06:21:18;2.50;;;0.47;;
24813;SDS011;12904;50.088;11.414;2023-08-07T06:23:45;1.15;;;0.77;;
24813;SDS011;12904;50.088;11.414;2023-08-07T06:26:10;2.40;;;0.85;;
24813;SDS011;12904;50.088;11.414;2023-08-07T06:28:36;0.70;;;0.60;;
24813;SDS011;12904;50.088;11.414;2023-08-07T06:31:05;1.15;;;0.40;;
24813;SDS011;12904;50.088;11.414;2023-08-07T06:33:32;0.63;;;0.30;;
24813;SDS011;12904;50.088;11.414;2023-08-07T06:35:59;0.80;;;0.80;;
24813;SDS011;12904;50.088;11.414;2023-08-07T06:38:25;1.10;;;0.60;;
24813;SDS011;12904;50.088;11.414;2023-08-07T06:40:51;0.57;;;0.57;;
24813;SDS011;12904;50.088;11.414;2023-08-07T06:43:17;0.77;;;0.77;;
24813;SDS011;12904;50.088;11.414;2023-08-07T06:45:42;3.38;;;0.80;;
24813;SDS011;12904;50.088;11.414;2023-08-07T06:48:08;2.65;;;2.47;;
24813;SDS011;12904;50.088;11.414;2023-08-07T06:50:34;1.02;;;0.60;;
24813;SDS011;12904;50.088;11.414;2023-08-07T06:53:00;1.73;;;0.47;;
24813;SDS011;12904;50.088;11.414;2023-08-07T06:55:25;0.85;;;0.32;;
24813;SDS011;12904;50.088;11.414;2023-08-07T06:57:51;0.60;;;0.60;;
24813;SDS011;12904;50.088;11.414;2023-08-07T07:00:17;0.38;;;0.38;;
24813;SDS011;12904;50.088;11.414;2023-08-07T07:02:42;0.70;;;0.50;;
24813;SDS011;12904;50.088;11.414;2023-08-07T07:05:08;4.28;;;0.70;;
24813;SDS011;12904;50.088;11.414;2023-08-07T07:07:34;0.90;;;0.40;;
24813;SDS011;12904;50.088;11.414;2023-08-07T07:10:00;0.35;;;0.30;;
24813;SDS011;12904;50.088;11.414;2023-08-07T07:12:26;1.08;;;0.70;;
24813;SDS011;12904;50.088;11.414;2023-08-07T07:14:52;1.13;;;0.60;;
24813;SDS011;12904;50.088;11.414;2023-08-07T07:17:18;0.90;;;0.50;;
24813;SDS011;12904;50.088;11.414;2023-08-07T07:19:44;0.63;;;0.50;;
24813;SDS011;12904;50.088;11.414;2023-08-07T07:22:09;0.73;;;0.43;;
24813;SDS011;12904;50.088;11.414;2023-08-07T07:24:35;3.75;;;0.60;;
24813;SDS011;12904;50.088;11.414;2023-08-07T07:27:01;0.65;;;0.50;;
24813;SDS011;12904;50.088;11.414;2023-08-07T07:29:26;0.77;;;0.50;;
24813;SDS011;12904;50.088;11.414;2023-08-07T07:31:52;0.70;;;0.50;;
24813;SDS011;12904;50.088;11.414;2023-08-07T07:34:19;1.05;;;0.47;;
24813;SDS011;12904;50.088;11.414;2023-08-07T07:36:45;0.43;;;0.40;;
24813;SDS011;12904;50.088;11.414;2023-08-07T07:39:11;4.63;;;0.52;;
24813;SDS011;12904;50.088;11.414;2023-08-07T07:41:37;0.40;;;0.40;;
24813;SDS011;12904;50.088;11.414;2023-08-07T07:44:02;7.68;;;1.27;;
24813;SDS011;12904;50.088;11.414;2023-08-07T07:46:28;1.67;;;0.60;;
24813;SDS011;12904;50.088;11.414;2023-08-07T07:48:54;0.90;;;0.40;;
24813;SDS011;12904;50.088;11.414;2023-08-07T07:51:21;1.17;;;0.40;;
24813;SDS011;12904;50.088;11.414;2023-08-07T07:53:46;1.05;;;0.50;;
24813;SDS011;12904;50.088;11.414;2023-08-07T07:56:12;0.63;;;0.40;;
24813;SDS011;12904;50.088;11.414;2023-08-07T07:58:38;2.05;;;0.50;;
24813;SDS011;12904;50.088;11.414;2023-08-07T08:01:03;2.45;;;0.70;;
24813;SDS011;12904;50.088;11.414;2023-08-07T08:03:29;1.90;;;0.60;;
24813;SDS011;12904;50.088;11.414;2023-08-07T08:05:54;2.22;;;0.60;;
24813;SDS011;12904;50.088;11.414;2023-08-07T08:08:21;1.02;;;0.52;;
24813;SDS011;12904;50.088;11.414;2023-08-07T08:10:46;0.82;;;0.60;;
24813;SDS011;12904;50.088;11.414;2023-08-07T08:13:13;1.02;;;0.65;;
24813;SDS011;12904;50.088;11.414;2023-08-07T08:15:39;0.80;;;0.70;;
24813;SDS011;12904;50.088;11.414;2023-08-07T08:18:05;1.45;;;0.60;;
24813;SDS011;12904;50.088;11.414;2023-08-07T08:20:30;2.53;;;0.90;;
24813;SDS011;12904;50.088;11.414;2023-08-07T08:22:57;3.92;;;0.60;;
24813;SDS011;12904;50.088;11.414;2023-08-07T08:25:23;0.88;;;0.60;;
24813;SDS011;12904;50.088;11.414;2023-08-07T08:27:48;0.68;;;0.57;;
24813;SDS011;12904;50.088;11.414;2023-08-07T08:30:16;0.85;;;0.57;;
24813;SDS011;12904;50.088;11.414;2023-08-07T08:32:42;2.65;;;0.98;;
24813;SDS011;12904;50.088;11.414;2023-08-07T08:35:08;1.15;;;0.75;;
24813;SDS011;12904;50.088;11.414;2023-08-07T08:37:34;0.98;;;0.63;;
24813;SDS011;12904;50.088;11.414;2023-08-07T08:40:00;1.45;;;0.70;;
24813;SDS011;12904;50.088;11.414;2023-08-07T08:42:26;5.05;;;2.25;;
24813;SDS011;12904;50.088;11.414;2023-08-07T08:44:52;0.95;;;0.75;;
24813;SDS011;12904;50.088;11.414;2023-08-07T08:47:19;1.50;;;1.05;;
24813;SDS011;12904;50.088;11.414;2023-08-07T08:49:47;1.35;;;0.90;;
24813;SDS011;12904;50.088;11.414;2023-08-07T08:52:15;1.52;;;1.02;;
24813;SDS011;12904;50.088;11.414;2023-08-07T08:54:45;8.40;;;1.20;;
24813;SDS011;12904;50.088;11.414;2023-08-07T08:57:11;1.23;;;1.00;;
24813;SDS011;12904;50.088;11.414;2023-08-07T08:59:38;1.42;;;1.20;;
24813;SDS011;12904;50.088;11.414;2023-08-07T09:02:05;1.70;;;1.60;;
24813;SDS011;12904;50.088;11.414;2023-08-07T09:04:32;3.45;;;2.00;;
24813;SDS011;12904;50.088;11.414;2023-08-07T09:06:57;2.25;;;2.00;;
24813;SDS011;12904;50.088;11.414;2023-08-07T09:09:24;2.80;;;1.73;;
24813;SDS011;12904;50.088;11.414;2023-08-07T09:11:50;2.10;;;1.83;;
24813;SDS011;12904;50.088;11.414;2023-08-07T09:14:17;6.03;;;2.20;;
24813;SDS011;12904;50.088;11.414;2023-08-07T09:16:50;4.10;;;2.00;;
24813;SDS011;12904;50.088;11.414;2023-08-07T09:19:16;2.95;;;1.65;;
24813;SDS011;12904;50.088;11.414;2023-08-07T09:21:42;2.90;;;2.15;;
24813;SDS011;12904;50.088;11.414;2023-08-07T09:24:08;2.00;;;1.80;;
24813;SDS011;12904;50.088;11.414;2023-08-07T09:26:34;3.67;;;2.10;;
24813;SDS011;12904;50.088;11.414;2023-08-07T09:29:00;3.03;;;2.10;;
24813;SDS011;12904;50.088;11.414;2023-08-07T09:31:27;2.83;;;1.55;;
24813;SDS011;12904;50.088;11.414;2023-08-07T09:34:00;4.65;;;1.95;;
24813;SDS011;12904;50.088;11.414;2023-08-07T09:36:27;2.58;;;1.50;;
24813;SDS011;12904;50.088;11.414;2023-08-07T09:38:55;4.47;;;1.75;;
24813;SDS011;12904;50.088;11.414;2023-08-07T09:41:20;3.55;;;1.58;;
24813;SDS011;12904;50.088;11.414;2023-08-07T09:43:47;1.83;;;1.52;;
24813;SDS011;12904;50.088;11.414;2023-08-07T09:46:12;2.15;;;1.70;;
24813;SDS011;12904;50.088;11.414;2023-08-07T09:48:41;2.80;;;1.85;;
24813;SDS011;12904;50.088;11.414;2023-08-07T09:51:08;2.08;;;1.73;;
24813;SDS011;12904;50.088;11.414;2023-08-07T09:53:34;4.57;;;2.38;;
24813;SDS011;12904;50.088;11.414;2023-08-07T09:56:00;2.28;;;2.08;;
24813;SDS011;12904;50.088;11.414;2023-08-07T09:58:26;2.60;;;1.80;;
24813;SDS011;12904;50.088;11.414;2023-08-07T10:00:52;2.35;;;2.15;;
24813;SDS011;12904;50.088;11.414;2023-08-07T10:03:19;2.20;;;2.00;;
24813;SDS011;12904;50.088;11.414;2023-08-07T10:05:46;3.83;;;2.00;;
24813;SDS011;12904;50.088;11.414;2023-08-07T10:08:12;2.00;;;1.55;;
24813;SDS011;12904;50.088;11.414;2023-08-07T10:10:38;2.72;;;1.33;;
24813;SDS011;12904;50.088;11.414;2023-08-07T10:13:04;1.70;;;1.50;;
24813;SDS011;12904;50.088;11.414;2023-08-07T10:15:33;1.90;;;1.30;;
24813;SDS011;12904;50.088;11.414;2023-08-07T10:17:59;1.70;;;1.42;;
24813;SDS011;12904;50.088;11.414;2023-08-07T10:20:26;2.45;;;1.48;;
24813;SDS011;12904;50.088;11.414;2023-08-07T10:22:53;3.67;;;1.50;;
24813;SDS011;12904;50.088;11.414;2023-08-07T10:25:25;1.83;;;1.38;;
24813;SDS011;12904;50.088;11.414;2023-08-07T10:27:53;2.55;;;1.50;;
24813;SDS011;12904;50.088;11.414;2023-08-07T10:30:20;1.85;;;1.20;;
24813;SDS011;12904;50.088;11.414;2023-08-07T10:32:48;1.67;;;1.30;;
24813;SDS011;12904;50.088;11.414;2023-08-07T10:37:50;2.30;;;1.30;;
24813;SDS011;12904;50.088;11.414;2023-08-07T10:40:18;2.28;;;1.30;;
24813;SDS011;12904;50.088;11.414;2023-08-07T10:45:20;2.05;;;1.38;;
24813;SDS011;12904;50.088;11.414;2023-08-07T10:50:29;2.27;;;1.37;;
24813;SDS011;12904;50.088;11.414;2023-08-07T10:53:03;2.80;;;1.63;;
24813;SDS011;12904;50.088;11.414;2023-08-07T10:55:45;1.98;;;1.45;;
24813;SDS011;12904;50.088;11.414;2023-08-07T10:58:21;2.03;;;1.30;;
24813;SDS011;12904;50.088;11.414;2023-08-07T11:00:51;4.60;;;1.88;;
24813;SDS011;12904;50.088;11.414;2023-08-07T11:03:26;1.85;;;1.40;;
24813;SDS011;12904;50.088;11.414;2023-08-07T11:05:52;1.60;;;1.25;;
24813;SDS011;12904;50.088;11.414;2023-08-07T11:08:21;1.65;;;1.52;;
24813;SDS011;12904;50.088;11.414;2023-08-07T11:10:48;2.67;;;1.42;;
24813;SDS011;12904;50.088;11.414;2023-08-07T11:13:16;1.90;;;1.10;;
24813;SDS011;12904;50.088;11.414;2023-08-07T11:15:41;1.67;;;1.10;;
24813;SDS011;12904;50.088;11.414;2023-08-07T11:18:07;2.83;;;1.40;;
24813;SDS011;12904;50.088;11.414;2023-08-07T11:20:34;1.83;;;1.40;;
24813;SDS011;12904;50.088;11.414;2023-08-07T11:23:00;2.53;;;1.40;;
24813;SDS011;12904;50.088;11.414;2023-08-07T11:25:26;2.15;;;1.48;;
24813;SDS011;12904;50.088;11.414;2023-08-07T11:27:51;1.55;;;1.20;;
24813;SDS011;12904;50.088;11.414;2023-08-07T11:30:18;1.48;;;1.30;;
24813;SDS011;12904;50.088;11.414;2023-08-07T11:32:44;1.92;;;1.35;;
24813;SDS011;12904;50.088;11.414;2023-08-07T11:35:10;0.98;;;0.85;;
24813;SDS011;12904;50.088;11.414;2023-08-07T11:37:36;1.30;;;1.20;;
24813;SDS011;12904;50.088;11.414;2023-08-07T11:40:10;1.35;;;0.95;;
24813;SDS011;12904;50.088;11.414;2023-08-07T11:42:36;1.98;;;1.10;;
24813;SDS011;12904;50.088;11.414;2023-08-07T11:45:02;1.65;;;0.90;;
24813;SDS011;12904;50.088;11.414;2023-08-07T11:47:29;2.42;;;0.90;;
24813;SDS011;12904;50.088;11.414;2023-08-07T11:49:55;1.13;;;0.85;;
24813;SDS011;12904;50.088;11.414;2023-08-07T11:52:20;1.20;;;1.10;;
24813;SDS011;12904;50.088;11.414;2023-08-07T11:54:48;6.30;;;1.40;;
24813;SDS011;12904;50.088;11.414;2023-08-07T11:57:17;0.93;;;0.82;;
24813;SDS011;12904;50.088;11.414;2023-08-07T11:59:50;2.83;;;1.00;;
24813;SDS011;12904;50.088;11.414;2023-08-07T12:02:16;3.22;;;0.90;;
24813;SDS011;12904;50.088;11.414;2023-08-07T12:04:41;1.40;;;0.95;;
24813;SDS011;12904;50.088;11.414;2023-08-07T12:07:07;1.73;;;1.33;;
24813;SDS011;12904;50.088;11.414;2023-08-07T12:09:36;1.25;;;1.00;;
24813;SDS011;12904;50.088;11.414;2023-08-07T12:12:02;1.83;;;0.98;;
24813;SDS011;12904;50.088;11.414;2023-08-07T12:14:31;1.35;;;0.88;;
24813;SDS011;12904;50.088;11.414;2023-08-07T12:16:57;1.88;;;0.88;;
24813;SDS011;12904;50.088;11.414;2023-08-07T12:19:22;1.27;;;1.08;;
24813;SDS011;12904;50.088;11.414;2023-08-07T12:21:48;1.05;;;0.70;;
24813;SDS011;12904;50.088;11.414;2023-08-07T12:24:13;1.75;;;0.90;;
24813;SDS011;12904;50.088;11.414;2023-08-07T12:26:39;6.78;;;1.73;;
24813;SDS011;12904;50.088;11.414;2023-08-07T12:29:05;1.42;;;0.88;;
24813;SDS011;12904;50.088;11.414;2023-08-07T12:31:30;0.95;;;0.80;;
24813;SDS011;12904;50.088;11.414;2023-08-07T12:33:56;1.98;;;0.77;;
24813;SDS011;12904;50.088;11.414;2023-08-07T12:36:22;1.33;;;0.82;;
24813;SDS011;12904;50.088;11.414;2023-08-07T12:38:48;1.05;;;0.90;;
24813;SDS011;12904;50.088;11.414;2023-08-07T12:41:14;1.58;;;0.77;;
24813;SDS011;12904;50.088;11.414;2023-08-07T12:43:39;1.17;;;0.65;;
24813;SDS011;12904;50.088;11.414;2023-08-07T12:46:05;1.45;;;0.88;;
24813;SDS011;12904;50.088;11.414;2023-08-07T12:48:31;0.80;;;0.80;;
24813;SDS011;12904;50.088;11.414;2023-08-07T12:50:56;1.35;;;0.70;;
24813;SDS011;12904;50.088;11.414;2023-08-07T12:53:22;1.50;;;0.77;;
24813;SDS011;12904;50.088;11.414;2023-08-07T12:55:48;1.27;;;0.68;;
24813;SDS011;12904;50.088;11.414;2023-08-07T12:58:13;1.80;;;0.88;;
24813;SDS011;12904;50.088;11.414;2023-08-07T13:00:40;1.83;;;0.82;;
24813;SDS011;12904;50.088;11.414;2023-08-07T13:03:06;0.75;;;0.75;;
24813;SDS011;12904;50.088;11.414;2023-08-07T13:05:31;1.55;;;0.93;;
24813;SDS011;12904;50.088;11.414;2023-08-07T13:07:57;2.17;;;1.00;;
24813;SDS011;12904;50.088;11.414;2023-08-07T13:10:24;1.92;;;0.82;;
24813;SDS011;12904;50.088;11.414;2023-08-07T13:12:49;2.53;;;0.90;;
24813;SDS011;12904;50.088;11.414;2023-08-07T13:15:15;1.40;;;0.82;;
24813;SDS011;12904;50.088;11.414;2023-08-07T13:17:42;5.70;;;1.17;;
24813;SDS011;12904;50.088;11.414;2023-08-07T13:20:09;2.15;;;0.80;;
24813;SDS011;12904;50.088;11.414;2023-08-07T13:22:38;1.00;;;0.90;;
24813;SDS011;12904;50.088;11.414;2023-08-07T13:25:07;8.55;;;1.38;;
24813;SDS011;12904;50.088;11.414;2023-08-07T13:27:34;1.27;;;0.80;;
24813;SDS011;12904;50.088;11.414;2023-08-07T13:30:00;0.70;;;0.70;;
24813;SDS011;12904;50.088;11.414;2023-08-07T13:32:27;1.25;;;1.00;;
24813;SDS011;12904;50.088;11.414;2023-08-07T13:34:52;1.58;;;1.00;;
24813;SDS011;12904;50.088;11.414;2023-08-07T13:37:18;2.05;;;1.00;;
24813;SDS011;12904;50.088;11.414;2023-08-07T13:39:44;1.25;;;0.75;;
24813;SDS011;12904;50.088;11.414;2023-08-07T13:42:10;1.10;;;1.00;;
24813;SDS011;12904;50.088;11.414;2023-08-07T13:44:36;1.17;;;1.00;;
24813;SDS011;12904;50.088;11.414;2023-08-07T13:47:02;2.60;;;0.90;;
24813;SDS011;12904;50.088;11.414;2023-08-07T13:49:28;0.80;;;0.80;;
24813;SDS011;12904;50.088;11.414;2023-08-07T13:51:54;2.58;;;1.02;;
24813;SDS011;12904;50.088;11.414;2023-08-07T13:54:19;1.17;;;0.90;;
24813;SDS011;12904;50.088;11.414;2023-08-07T13:56:45;1.35;;;1.00;;
24813;SDS011;12904;50.088;11.414;2023-08-07T13:59:11;1.52;;;1.00;;
24813;SDS011;12904;50.088;11.414;2023-08-07T14:01:36;1.20;;;0.80;;
24813;SDS011;12904;50.088;11.414;2023-08-07T14:04:02;1.98;;;1.10;;
24813;SDS011;12904;50.088;11.414;2023-08-07T14:06:28;1.27;;;1.00;;
24813;SDS011;12904;50.088;11.414;2023-08-07T14:08:54;1.83;;;1.38;;
24813;SDS011;12904;50.088;11.414;2023-08-07T14:11:20;1.33;;;1.20;;
24813;SDS011;12904;50.088;11.414;2023-08-07T14:13:46;3.55;;;1.40;;
24813;SDS011;12904;50.088;11.414;2023-08-07T14:16:12;1.48;;;1.13;;
24813;SDS011;12904;50.088;11.414;2023-08-07T14:18:38;1.35;;;1.23;;
24813;SDS011;12904;50.088;11.414;2023-08-07T14:21:03;1.20;;;1.00;;
24813;SDS011;12904;50.088;11.414;2023-08-07T14:23:29;1.20;;;1.10;;
24813;SDS011;12904;50.088;11.414;2023-08-07T14:25:55;1.05;;;0.98;;
24813;SDS011;12904;50.088;11.414;2023-08-07T14:28:21;1.48;;;1.10;;
24813;SDS011;12904;50.088;11.414;2023-08-07T14:30:47;1.10;;;1.00;;
24813;SDS011;12904;50.088;11.414;2023-08-07T14:33:13;1.52;;;1.00;;
24813;SDS011;12904;50.088;11.414;2023-08-07T14:35:39;1.67;;;1.20;;
24813;SDS011;12904;50.088;11.414;2023-08-07T14:38:04;0.95;;;0.90;;